createdAt,value
2019-04-29T05:15:59.430Z,17.40
2019-04-29T05:20:56.919Z,17.50
2019-04-29T05:23:25.849Z,17.50
2019-04-29T05:25:54.706Z,17.50
2019-04-29T05:28:23.843Z,17.50
2019-04-29T05:30:53.018Z,17.60
2019-04-29T05:33:21.777Z,17.60
2019-04-29T05:36:54.316Z,17.60
2019-04-29T05:39:28.353Z,17.60
2019-04-29T05:41:57.354Z,17.60
2019-04-29T05:45:01.992Z,17.60
2019-04-29T05:52:49.739Z,17.60
2019-04-29T05:55:15.441Z,17.70
2019-04-29T05:57:44.062Z,17.70
2019-04-29T06:00:12.883Z,17.70
2019-04-29T06:02:41.734Z,17.70
2019-04-29T06:05:10.577Z,17.70
2019-04-29T06:07:39.339Z,17.70
2019-04-29T06:10:08.161Z,17.70
2019-04-29T06:15:05.684Z,17.80
2019-04-29T06:17:34.928Z,17.90
2019-04-29T06:20:03.700Z,17.90
2019-04-29T06:22:32.554Z,17.80
2019-04-29T06:25:01.423Z,18.00
2019-04-29T06:27:31.855Z,18.00
2019-04-29T06:30:03.153Z,18.10
2019-04-29T06:32:27.506Z,18.10
2019-04-29T06:34:56.362Z,18.10
2019-04-29T06:37:25.204Z,18.20
2019-04-29T06:39:54.071Z,18.20
2019-04-29T06:42:23.169Z,18.20
2019-04-29T06:44:51.659Z,18.30
2019-04-29T06:47:20.518Z,18.30
2019-04-29T06:49:49.253Z,18.40
2019-04-29T06:52:18.357Z,18.50
2019-04-29T06:59:47.524Z,18.60
2019-04-29T07:02:14.273Z,18.60
2019-04-29T07:04:40.681Z,18.70
2019-04-29T07:07:09.595Z,18.70
2019-04-29T07:09:38.726Z,18.80
2019-04-29T07:12:08.139Z,18.80
2019-04-29T07:14:38.559Z,18.80
2019-04-29T07:17:05.699Z,18.90
2019-04-29T07:19:33.843Z,19.00
2019-04-29T07:22:02.839Z,19.00
2019-04-29T07:24:31.569Z,19.10
2019-04-29T07:29:32.319Z,19.20
2019-04-29T07:31:58.050Z,19.20
2019-04-29T07:34:28.987Z,19.20
2019-04-29T07:36:57.677Z,19.30
2019-04-29T07:39:26.719Z,19.30
2019-04-29T07:44:20.805Z,19.40
2019-04-29T07:46:56.754Z,19.40
2019-04-29T07:49:20.256Z,19.40
2019-04-29T07:51:49.138Z,19.50
2019-04-29T07:54:18.246Z,19.50
2019-04-29T07:56:47.157Z,19.50
2019-04-29T07:59:16.254Z,19.60
2019-04-29T08:01:44.983Z,19.60
2019-04-29T08:04:13.467Z,19.60
2019-04-29T08:06:42.972Z,19.60
2019-04-29T08:09:10.427Z,19.60
2019-04-29T08:11:39.175Z,19.60
2019-04-29T08:14:07.686Z,19.60
2019-04-29T08:16:36.174Z,19.60
2019-04-29T08:19:05.109Z,19.60
2019-04-29T08:21:33.510Z,19.60
2019-04-29T08:24:02.251Z,19.60
2019-04-29T08:26:33.728Z,19.60
2019-04-29T08:31:28.359Z,19.60
2019-04-29T08:33:56.842Z,19.50
2019-04-29T08:36:25.910Z,19.50
2019-04-29T08:39:07.618Z,19.50
2019-04-29T08:41:28.589Z,19.50
2019-04-29T08:46:03.552Z,19.50
2019-04-29T08:48:32.264Z,19.50
2019-04-29T08:51:00.758Z,19.50
2019-04-29T08:53:29.270Z,19.50
2019-04-29T08:58:26.403Z,19.50
2019-04-29T09:00:55.918Z,19.50
2019-04-29T09:03:24.465Z,19.50
2019-04-29T09:08:21.708Z,19.50
2019-04-29T09:10:50.478Z,19.50
2019-04-29T09:15:47.565Z,19.50
2019-04-29T09:18:16.051Z,19.50
2019-04-29T09:20:44.798Z,19.50
2019-04-29T09:26:01.943Z,19.50
2019-04-29T09:28:27.147Z,19.50
2019-04-29T09:30:48.681Z,19.50
2019-04-29T09:33:17.801Z,19.50
2019-04-29T09:35:46.643Z,19.50
2019-04-29T09:38:15.761Z,19.50
2019-04-29T09:40:48.773Z,19.50
2019-04-29T09:43:25.825Z,19.50
2019-04-29T09:45:58.788Z,19.50
2019-04-29T09:48:24.674Z,19.50
2019-04-29T09:55:51.169Z,19.50
2019-04-29T09:58:19.974Z,19.50
2019-04-29T10:01:09.348Z,19.50
2019-04-29T10:04:56.529Z,19.50
2019-04-29T10:07:16.231Z,19.50
2019-04-29T10:09:56.529Z,19.50
2019-04-29T10:12:14.505Z,19.50
2019-04-29T10:14:43.326Z,19.50
2019-04-29T10:17:20.414Z,19.50
2019-04-29T10:19:53.317Z,19.50
2019-04-29T10:22:22.201Z,19.50
2019-04-29T10:24:50.946Z,19.50
2019-04-29T10:27:19.442Z,19.50
2019-04-29T10:29:50.812Z,19.50
2019-04-29T10:34:46.544Z,19.50
2019-04-29T10:37:15.705Z,19.50
2019-04-29T10:39:49.287Z,19.50
2019-04-29T10:44:57.649Z,19.60
2019-04-29T10:48:30.707Z,19.60
2019-04-29T10:50:59.441Z,19.60
2019-04-29T10:53:28.969Z,19.60
2019-04-29T10:56:00.859Z,19.60
2019-04-29T10:58:30.220Z,19.60
2019-04-29T11:03:02.630Z,19.60
2019-04-29T11:09:09.653Z,19.60
2019-04-29T11:11:36.158Z,19.50
2019-04-29T11:14:04.660Z,19.50
2019-04-29T11:16:46.098Z,19.50
2019-04-29T11:19:05.438Z,19.50
2019-04-29T11:21:31.697Z,19.50
2019-04-29T11:24:04.986Z,19.50
2019-04-29T11:26:39.843Z,19.50
2019-04-29T11:31:36.874Z,19.50
2019-04-29T11:34:11.500Z,19.60
2019-04-29T11:36:44.042Z,19.60
2019-04-29T11:39:13.365Z,19.60
2019-04-29T11:41:38.090Z,19.60
2019-04-29T11:44:06.580Z,19.60
2019-04-29T11:46:35.390Z,19.60
2019-04-29T11:49:04.132Z,19.70
2019-04-29T11:51:55.887Z,19.70
2019-04-29T11:54:08.184Z,19.70
2019-04-29T11:56:34.104Z,19.70
2019-04-29T12:01:59.788Z,19.70
2019-04-29T12:04:33.798Z,19.70
2019-04-29T12:07:01.905Z,19.70
2019-04-29T12:09:32.146Z,19.70
2019-04-29T12:11:59.233Z,19.70
2019-04-29T12:14:38.008Z,19.70
2019-04-29T12:17:18.302Z,19.70
2019-04-29T12:19:47.279Z,19.70
2019-04-29T12:22:28.316Z,19.70
2019-04-29T12:24:44.873Z,19.80
2019-04-29T12:27:14.788Z,19.70
2019-04-29T12:29:42.106Z,19.80
2019-04-29T12:32:16.415Z,19.80
2019-04-29T12:34:49.178Z,19.80
2019-04-29T12:37:25.609Z,19.80
2019-04-29T12:39:59.634Z,19.80
2019-04-29T12:43:05.427Z,19.80
2019-04-29T12:45:38.187Z,19.80
2019-04-29T12:48:06.922Z,19.80
2019-04-29T12:50:36.034Z,19.80
2019-04-29T12:53:04.528Z,19.90
2019-04-29T12:55:45.063Z,19.80
2019-04-29T12:58:05.997Z,19.80
2019-04-29T13:00:46.928Z,19.80
2019-04-29T13:03:10.998Z,19.90
2019-04-29T13:05:57.541Z,19.90
2019-04-29T13:08:18.255Z,19.90
2019-04-29T13:10:50.427Z,19.90
2019-04-29T13:13:20.026Z,19.90
2019-04-29T13:15:54.870Z,19.90
2019-04-29T13:18:28.610Z,19.90
2019-04-29T13:21:09.544Z,19.90
2019-04-29T13:23:36.029Z,19.90
2019-04-29T13:25:55.939Z,19.90
2019-04-29T13:28:30.277Z,19.90
2019-04-29T13:30:56.736Z,19.90
2019-04-29T13:33:21.354Z,19.90
2019-04-29T13:35:50.215Z,19.90
2019-04-29T13:38:18.701Z,19.90
2019-04-29T13:40:47.520Z,19.90
2019-04-29T13:43:16.253Z,19.90
2019-04-29T13:45:49.713Z,19.90
2019-04-29T13:48:27.429Z,20.00
2019-04-29T13:53:29.791Z,19.90
2019-04-29T13:56:11.001Z,20.00
2019-04-29T13:58:29.228Z,19.90
2019-04-29T14:01:01.815Z,20.00
2019-04-29T14:03:33.023Z,20.00
2019-04-29T14:06:04.316Z,20.00
2019-04-29T14:10:58.901Z,20.00
2019-04-29T14:15:55.962Z,20.00
2019-04-29T14:20:53.158Z,20.00
2019-04-29T14:23:21.330Z,20.00
2019-04-29T14:25:49.811Z,20.00
2019-04-29T14:28:18.645Z,20.00
2019-04-29T14:30:49.138Z,20.10
2019-04-29T14:33:19.176Z,20.00
2019-04-29T14:35:49.932Z,20.00
2019-04-29T14:40:46.906Z,20.10
2019-04-29T14:46:29.251Z,20.10
2019-04-29T14:49:06.231Z,20.10
2019-04-29T14:51:36.672Z,20.10
2019-04-29T14:54:07.350Z,20.10
2019-04-29T14:56:31.159Z,20.10
2019-04-29T14:59:06.484Z,20.10
2019-04-29T15:01:32.367Z,20.10
2019-04-29T15:04:16.709Z,20.10
2019-04-29T15:06:31.516Z,20.10
2019-04-29T15:09:00.362Z,20.10
2019-04-29T15:14:10.270Z,20.10
2019-04-29T15:16:43.999Z,20.10
2019-04-29T15:20:25.272Z,20.10
2019-04-29T15:22:49.624Z,20.10
2019-04-29T15:25:20.958Z,20.10
2019-04-29T15:27:47.137Z,20.20
2019-04-29T15:30:15.618Z,20.20
2019-04-29T15:32:44.803Z,20.20
2019-04-29T15:40:10.344Z,20.20
2019-04-29T15:42:43.104Z,20.30
2019-04-29T15:47:36.111Z,20.30
2019-04-29T15:50:18.138Z,20.40
2019-04-29T15:52:33.842Z,20.40
2019-04-29T15:55:02.673Z,20.40
2019-04-29T15:57:31.684Z,20.40
2019-04-29T16:00:03.763Z,20.40
2019-04-29T16:05:04.697Z,20.50
2019-04-29T16:08:07.665Z,20.50
2019-04-29T16:10:40.753Z,20.60
2019-04-29T16:13:10.006Z,20.60
2019-04-29T16:18:10.611Z,20.60
2019-04-29T16:20:35.828Z,20.70
2019-04-29T16:23:04.314Z,20.70
2019-04-29T16:25:39.961Z,20.80
2019-04-29T16:30:31.771Z,20.80
2019-04-29T16:32:58.342Z,20.90
2019-04-29T16:35:34.249Z,20.90
2019-04-29T16:37:56.044Z,20.90
2019-04-29T16:40:24.814Z,20.90
2019-04-29T16:43:00.466Z,21.00
2019-04-29T16:48:02.877Z,21.10
2019-04-29T16:52:59.941Z,21.30
2019-04-29T16:55:28.790Z,21.30
2019-04-29T16:57:59.824Z,21.40
2019-04-29T17:00:26.981Z,21.50
2019-04-29T17:05:24.346Z,21.60
2019-04-29T17:07:53.087Z,21.70
2019-04-29T17:10:25.973Z,21.70
2019-04-29T17:12:54.810Z,21.80
2019-04-29T17:15:25.365Z,21.90
2019-04-29T17:20:20.887Z,22.00
2019-04-29T17:25:17.935Z,22.10
2019-04-29T17:27:51.810Z,22.10
2019-04-29T17:32:42.242Z,22.20
2019-04-29T17:34:59.652Z,22.20
2019-04-29T17:37:26.478Z,22.20
2019-04-29T17:39:55.546Z,22.20
2019-04-29T17:42:24.595Z,22.30
2019-04-29T17:47:32.506Z,22.30
2019-04-29T17:52:35.377Z,22.40
2019-04-29T17:55:08.290Z,22.40
2019-04-29T18:00:20.431Z,22.40
2019-04-29T18:02:57.272Z,22.40
2019-04-29T18:06:28.198Z,22.50
2019-04-29T18:08:59.227Z,22.50
2019-04-29T18:11:27.729Z,22.50
2019-04-29T18:13:57.036Z,22.50
2019-04-29T18:16:29.297Z,22.50
2019-04-29T18:19:06.769Z,22.40
2019-04-29T18:23:51.503Z,22.40
2019-04-29T18:26:25.722Z,22.30
2019-04-29T18:28:52.785Z,22.20
2019-04-29T18:31:21.791Z,22.10
2019-04-29T18:33:50.277Z,22.00
2019-04-29T18:36:23.510Z,21.90
2019-04-29T18:38:50.080Z,21.80
2019-04-29T18:41:24.261Z,21.70
2019-04-29T18:43:45.189Z,21.60
2019-04-29T18:46:14.875Z,21.60
2019-04-29T18:48:41.569Z,21.50
2019-04-29T18:51:10.045Z,21.50
2019-04-29T18:53:38.889Z,21.40
2019-04-29T18:56:07.669Z,21.40
2019-04-29T18:58:36.450Z,21.30
2019-04-29T19:01:05.427Z,21.20
2019-04-29T19:03:42.105Z,21.20
2019-04-29T19:06:11.316Z,21.10
2019-04-29T19:08:39.665Z,21.10
2019-04-29T19:11:08.140Z,21.10
2019-04-29T19:13:36.881Z,21.10
2019-04-29T19:18:33.566Z,21.00
2019-04-29T19:21:02.092Z,21.00
2019-04-29T19:23:30.542Z,20.90
2019-04-29T19:25:59.352Z,20.90
2019-04-29T19:31:02.900Z,21.00
2019-04-29T19:38:21.722Z,21.00
2019-04-29T19:40:50.654Z,20.90
2019-04-29T19:43:19.193Z,20.90
2019-04-29T19:45:49.075Z,20.90
2019-04-29T19:53:12.985Z,20.90
2019-04-29T19:55:43.090Z,20.90
2019-04-29T19:58:12.633Z,20.90
2019-04-29T20:00:39.780Z,20.90
2019-04-29T20:03:20.239Z,20.90
2019-04-29T20:05:40.666Z,20.90
2019-04-29T20:08:09.613Z,20.90
2019-04-29T20:10:46.208Z,20.90
2019-04-29T20:15:37.749Z,20.90
2019-04-29T20:21:08.484Z,20.90
2019-04-29T20:23:28.288Z,20.80
2019-04-29T20:26:05.773Z,20.80
2019-04-29T20:28:25.886Z,20.80
2019-04-29T20:30:55.591Z,20.80
2019-04-29T20:33:22.132Z,20.80
2019-04-29T20:35:50.652Z,20.70
2019-04-29T20:38:19.096Z,20.70
2019-04-29T20:40:48.049Z,20.70
2019-04-29T20:43:20.916Z,20.70
2019-04-29T20:45:45.873Z,20.60
2019-04-29T20:48:17.842Z,20.60
2019-04-29T20:50:47.727Z,20.60
2019-04-29T20:53:15.876Z,20.60
2019-04-29T20:55:46.108Z,20.60
